createdAt,value
2019-02-21T00:03:54.520Z,26.87
2019-02-21T00:09:56.788Z,24.40
2019-02-21T00:15:59.072Z,24.47
2019-02-21T00:22:01.312Z,21.17
2019-02-21T00:28:04.545Z,23.05
2019-02-21T00:34:06.727Z,20.80
2019-02-21T00:40:09.004Z,22.13
2019-02-21T00:46:11.238Z,22.35
2019-02-21T00:52:13.608Z,21.95
2019-02-21T00:58:16.163Z,23.30
2019-02-21T01:04:21.878Z,21.00
2019-02-21T01:10:24.050Z,22.80
2019-02-21T01:16:26.247Z,19.42
2019-02-21T01:22:28.451Z,21.85
2019-02-21T01:28:30.807Z,18.73
2019-02-21T01:34:32.911Z,21.75
2019-02-21T01:40:35.428Z,19.85
2019-02-21T01:46:37.660Z,23.30
2019-02-21T01:52:41.991Z,20.77
2019-02-21T01:58:44.411Z,19.75
2019-02-21T02:04:46.998Z,17.92
2019-02-21T02:10:49.456Z,22.85
2019-02-21T02:16:51.700Z,21.30
2019-02-21T02:22:53.871Z,19.50
2019-02-21T02:28:56.139Z,21.30
2019-02-21T02:34:59.941Z,20.43
2019-02-21T02:41:02.453Z,17.70
2019-02-21T02:47:04.648Z,19.85
2019-02-21T02:53:06.945Z,18.90
2019-02-21T02:59:10.190Z,18.77
2019-02-21T03:05:12.495Z,19.12
2019-02-21T03:11:14.762Z,20.20
2019-02-21T03:17:17.121Z,19.45
2019-02-21T03:23:19.312Z,19.17
2019-02-21T03:29:21.523Z,20.35
2019-02-21T03:35:23.713Z,19.10
2019-02-21T03:41:26.031Z,18.02
2019-02-21T03:47:28.294Z,20.80
2019-02-21T03:53:30.701Z,18.57
2019-02-21T03:59:33.019Z,19.48
2019-02-21T04:05:36.927Z,20.52
2019-02-21T04:11:39.401Z,21.40
2019-02-21T04:17:41.571Z,20.60
2019-02-21T04:23:45.429Z,18.27
2019-02-21T04:29:47.741Z,18.70
2019-02-21T04:35:50.078Z,21.12
2019-02-21T04:41:52.276Z,22.52
2019-02-21T04:47:54.595Z,25.57
2019-02-21T04:53:56.799Z,23.77
2019-02-21T04:59:59.128Z,22.73
2019-02-21T05:06:01.499Z,20.52
2019-02-21T05:12:03.916Z,20.10
2019-02-21T05:18:06.167Z,21.48
2019-02-21T05:24:08.489Z,20.27
2019-02-21T05:30:17.468Z,19.62
2019-02-21T05:36:38.334Z,19.73
2019-02-21T05:42:42.413Z,22.55
2019-02-21T05:48:52.223Z,18.80
2019-02-21T05:54:56.368Z,21.00
2019-02-21T06:01:03.357Z,21.17
2019-02-21T06:07:10.116Z,20.85
2019-02-21T06:13:20.437Z,19.10
2019-02-21T06:19:26.022Z,24.20
2019-02-21T06:25:30.600Z,19.62
2019-02-21T06:31:32.836Z,21.23
2019-02-21T06:37:37.682Z,22.13
2019-02-21T06:43:40.340Z,20.45
2019-02-21T06:49:42.634Z,20.43
2019-02-21T06:55:45.151Z,19.87
2019-02-21T07:01:47.560Z,24.85
2019-02-21T07:07:49.973Z,18.52
2019-02-21T07:13:53.388Z,19.77
2019-02-21T07:19:55.763Z,22.48
2019-02-21T07:25:59.175Z,22.32
2019-02-21T07:32:01.408Z,19.82
2019-02-21T07:38:03.823Z,24.12
2019-02-21T07:44:12.206Z,23.00
2019-02-21T07:50:11.016Z,24.43
2019-02-21T07:56:13.278Z,23.95
2019-02-21T08:02:15.400Z,24.95
2019-02-21T08:08:17.511Z,24.40
2019-02-21T08:14:21.634Z,24.20
2019-02-21T08:20:33.483Z,24.20
2019-02-21T08:26:27.724Z,22.65
2019-02-21T08:32:32.903Z,22.32
2019-02-21T08:38:35.192Z,23.22
2019-02-21T08:44:37.481Z,20.97
2019-02-21T08:50:39.794Z,24.05
2019-02-21T08:56:41.919Z,24.75
2019-02-21T09:02:44.254Z,29.32
2019-02-21T09:08:46.497Z,32.00
2019-02-21T09:14:48.932Z,27.37
2019-02-21T09:20:51.087Z,28.32
2019-02-21T09:26:53.275Z,32.03
2019-02-21T09:32:55.402Z,29.23
2019-02-21T09:38:57.631Z,32.85
2019-02-21T09:44:59.848Z,28.83
2019-02-21T09:51:02.081Z,31.80
2019-02-21T09:57:12.825Z,32.48
2019-02-21T10:03:08.416Z,32.53
2019-02-21T10:09:10.638Z,28.98
2019-02-21T10:15:13.180Z,29.52
2019-02-21T10:21:15.454Z,31.77
2019-02-21T10:27:17.824Z,29.85
2019-02-21T10:33:20.073Z,32.90
2019-02-21T10:39:22.493Z,35.25
2019-02-21T10:45:24.784Z,31.57
2019-02-21T10:51:27.079Z,32.67
2019-02-21T10:57:29.362Z,32.00
2019-02-21T11:03:31.623Z,30.57
2019-02-21T11:09:33.903Z,29.23
2019-02-21T11:15:36.156Z,30.37
2019-02-21T11:21:38.344Z,30.35
2019-02-21T11:27:42.627Z,28.12
2019-02-21T11:33:44.935Z,30.23
2019-02-21T11:39:47.126Z,28.52
2019-02-21T11:45:53.988Z,28.38
2019-02-21T11:51:56.037Z,27.67
2019-02-21T11:57:58.298Z,27.10
2019-02-21T12:04:00.633Z,27.02
2019-02-21T12:10:04.362Z,26.60
2019-02-21T12:16:06.782Z,24.95
2019-02-21T12:22:09.189Z,23.45
2019-02-21T12:28:11.591Z,25.25
2019-02-21T12:34:13.907Z,24.65
2019-02-21T12:40:16.965Z,25.37
2019-02-21T12:46:19.363Z,21.75
2019-02-21T12:52:21.935Z,24.52
2019-02-21T12:58:25.199Z,23.38
2019-02-21T13:04:28.786Z,21.75
2019-02-21T13:10:34.855Z,21.75
2019-02-21T13:16:38.043Z,21.05
2019-02-21T13:22:40.550Z,22.58
2019-02-21T13:28:42.926Z,22.98
2019-02-21T13:34:45.132Z,22.45
2019-02-21T13:40:49.685Z,22.02
2019-02-21T13:46:52.361Z,20.85
2019-02-21T13:52:54.785Z,22.80
2019-02-21T13:58:58.163Z,19.82
2019-02-21T14:05:00.435Z,17.70
2019-02-21T14:11:02.808Z,14.68
2019-02-21T14:17:05.165Z,13.60
2019-02-21T14:23:07.876Z,15.70
2019-02-21T14:29:11.278Z,15.00
2019-02-21T14:35:14.441Z,19.82
2019-02-21T14:41:17.127Z,18.27
2019-02-21T14:47:19.658Z,16.27
2019-02-21T14:53:22.163Z,17.02
2019-02-21T14:59:24.764Z,17.77
2019-02-21T15:05:27.044Z,16.95
2019-02-21T15:11:30.218Z,19.40
2019-02-21T15:17:32.464Z,18.15
2019-02-21T15:23:36.986Z,18.10
2019-02-21T15:29:41.487Z,18.50
2019-02-21T15:35:42.863Z,17.32
2019-02-21T15:41:45.168Z,17.98
2019-02-21T15:47:47.501Z,18.27
2019-02-21T15:53:49.655Z,16.90
2019-02-21T15:59:51.892Z,20.35
2019-02-21T16:05:54.228Z,28.32
2019-02-21T16:11:56.807Z,18.40
2019-02-21T16:17:59.539Z,18.42
2019-02-21T16:24:01.738Z,17.32
2019-02-21T16:30:04.231Z,15.63
2019-02-21T16:36:06.561Z,18.87
2019-02-21T16:42:08.906Z,19.23
2019-02-21T16:48:11.571Z,23.00
2019-02-21T16:54:24.924Z,20.57
2019-02-21T17:00:42.165Z,18.67
2019-02-21T17:06:31.731Z,20.12
2019-02-21T17:12:34.020Z,20.15
2019-02-21T17:18:36.318Z,26.23
2019-02-21T17:24:38.637Z,21.37
2019-02-21T17:30:41.064Z,22.17
2019-02-21T17:36:43.315Z,20.92
2019-02-21T17:42:46.777Z,18.48
2019-02-21T17:48:48.960Z,19.73
2019-02-21T17:54:51.344Z,16.00
2019-02-21T18:00:54.706Z,16.97
2019-02-21T18:06:59.871Z,18.98
2019-02-21T18:13:02.088Z,18.65
2019-02-21T18:19:04.410Z,17.70
2019-02-21T18:25:13.300Z,19.60
2019-02-21T18:31:16.059Z,18.85
2019-02-21T18:37:19.400Z,20.00
2019-02-21T18:43:21.728Z,22.27
2019-02-21T18:49:24.360Z,19.32
2019-02-21T18:55:26.892Z,18.12
2019-02-21T19:01:29.087Z,20.25
2019-02-21T19:07:31.500Z,20.12
2019-02-21T19:13:33.890Z,19.35
2019-02-21T19:19:38.338Z,18.05
2019-02-21T19:25:40.664Z,20.50
2019-02-21T19:31:43.157Z,19.80
2019-02-21T19:37:47.876Z,20.02
2019-02-21T19:43:50.265Z,16.65
2019-02-21T19:49:52.516Z,24.27
2019-02-21T19:55:56.889Z,23.27
2019-02-21T20:01:59.072Z,21.25
2019-02-21T20:08:08.552Z,20.70
2019-02-21T20:14:06.802Z,22.67
2019-02-21T20:20:10.403Z,23.12
2019-02-21T20:26:18.297Z,28.50
2019-02-21T20:32:20.511Z,23.38
2019-02-21T20:38:31.891Z,22.50
2019-02-21T20:44:28.108Z,21.65
2019-02-21T20:50:31.614Z,23.80
2019-02-21T20:56:33.876Z,23.73
2019-02-21T21:02:42.386Z,21.87
2019-02-21T21:08:46.699Z,23.65
2019-02-21T21:14:49.057Z,24.00
2019-02-21T21:20:51.382Z,23.30
2019-02-21T21:26:53.583Z,23.60
2019-02-21T21:32:55.774Z,23.07
2019-02-21T21:38:58.084Z,21.85
2019-02-21T21:45:00.384Z,25.70
2019-02-21T21:51:04.685Z,24.32
2019-02-21T21:57:07.011Z,26.62
2019-02-21T22:03:09.172Z,26.77
2019-02-21T22:09:11.477Z,27.17
2019-02-21T22:15:14.058Z,31.60
2019-02-21T22:21:16.339Z,27.75
2019-02-21T22:27:19.567Z,27.75
2019-02-21T22:33:22.197Z,25.90
2019-02-21T22:39:24.387Z,26.40
2019-02-21T22:45:26.609Z,25.62
2019-02-21T22:51:28.916Z,22.48
2019-02-21T22:57:31.275Z,24.18
2019-02-21T23:03:55.019Z,27.07
2019-02-21T23:09:57.363Z,22.40
2019-02-21T23:16:00.561Z,20.15
2019-02-21T23:22:02.686Z,25.80
2019-02-21T23:28:04.960Z,25.30
2019-02-21T23:34:09.083Z,26.17
2019-02-21T23:40:11.239Z,27.87
2019-02-21T23:46:13.440Z,21.07
2019-02-21T23:52:15.745Z,22.00
2019-02-21T23:58:17.923Z,23.92
